Time;durP1;ratioP1;P1;durP2;ratioP2;P2;SDS_P1;SDS_P2;PMS_P1;PMS_P2;Temp;Humidity;BMP_temperature;BMP_pressure;BME280_temperature;BME280_humidity;BME280_pressure;Samples;Min_cycle;Max_cycle;Signal;HPM_P1;HPM_P2
2023/12/04 00:01:31;;;;;;;12.00;6.10;;;;;;;-7.35;85.19;97176.02;108809;1265;22545;-79
2023/12/04 00:04:02;;;;;;;13.20;7.40;;;;;;;-7.34;84.86;97173.96;108814;1273;22526;-79
2023/12/04 00:06:34;;;;;;;10.30;6.40;;;;;;;-7.38;85.04;97173.95;108804;1273;22553;-79
2023/12/04 00:09:03;;;;;;;12.50;7.40;;;;;;;-7.42;84.85;97172.14;108802;1272;25400;-79
2023/12/04 00:11:36;;;;;;;12.70;7.10;;;;;;;-7.52;84.64;97172.48;108821;1273;22528;-79
2023/12/04 00:14:06;;;;;;;12.20;7.00;;;;;;;-7.58;84.74;97173.68;108831;1273;22530;-80
2023/12/04 00:16:36;;;;;;;11.90;6.70;;;;;;;-7.56;85.17;97178.67;108802;1270;22985;-79
2023/12/04 00:19:07;;;;;;;11.30;5.30;;;;;;;-7.54;85.08;97181.42;108784;1257;26137;-79
2023/12/04 00:21:35;;;;;;;9.90;5.90;;;;;;;-7.55;85.18;97186.11;108767;1273;22534;-79
2023/12/04 00:24:04;;;;;;;10.80;5.30;;;;;;;-7.62;84.84;97185.48;108772;1273;24298;-79
2023/12/04 00:26:32;;;;;;;11.10;5.60;;;;;;;-7.69;84.68;97186.34;108783;1273;22706;-79
2023/12/04 00:29:01;;;;;;;9.60;5.30;;;;;;;-7.81;84.45;97182.61;108792;1273;22521;-79
2023/12/04 00:31:32;;;;;;;9.10;5.20;;;;;;;-7.83;84.75;97184.91;108822;1254;25411;-79
2023/12/04 00:34:02;;;;;;;11.10;6.20;;;;;;;-7.82;85.13;97189.26;108792;1273;25390;-79
2023/12/04 00:36:30;;;;;;;11.80;6.20;;;;;;;-7.77;85.68;97192.89;108743;1272;22530;-79
2023/12/04 00:38:59;;;;;;;10.60;5.90;;;;;;;-7.70;85.71;97193.50;108789;1273;22534;-79
2023/12/04 00:41:27;;;;;;;12.80;7.20;;;;;;;-7.63;86.09;97193.83;108804;1273;22475;-80
2023/12/04 00:43:55;;;;;;;12.70;7.50;;;;;;;-7.56;86.11;97192.12;108803;1268;22791;-79
2023/12/04 00:46:26;;;;;;;12.30;7.50;;;;;;;-7.53;86.02;97194.14;108793;1267;25431;-80
2023/12/04 00:48:56;;;;;;;13.40;7.20;;;;;;;-7.50;85.86;97183.17;108771;1267;26041;-79
2023/12/04 00:51:25;;;;;;;9.80;6.10;;;;;;;-7.45;86.14;97184.53;108790;1267;22137;-79
2023/12/04 00:53:54;;;;;;;11.40;6.20;;;;;;;-7.44;86.05;97186.13;108758;1273;22531;-80
2023/12/04 00:56:21;;;;;;;;;;;;;;;-7.48;86.06;97186.27;108769;1267;26522;-79
2023/12/04 00:58:49;;;;;;;9.90;5.40;;;;;;;-7.53;86.00;97190.35;108748;1267;27034;-79
2023/12/04 01:01:18;;;;;;;7.50;4.00;;;;;;;-7.57;85.76;97196.16;108760;1273;22502;-79
2023/12/04 01:03:48;;;;;;;9.40;5.90;;;;;;;-7.59;86.19;97197.70;108751;1257;23188;-79
2023/12/04 01:06:26;;;;;;;10.60;5.00;;;;;;;-7.60;86.12;97201.37;108725;1268;22541;-79
2023/12/04 01:08:58;;;;;;;11.10;6.30;;;;;;;-7.64;86.00;97200.74;108773;1267;22514;-79
2023/12/04 01:11:26;;;;;;;12.60;7.20;;;;;;;-7.66;86.15;97199.25;108794;1267;22543;-79
2023/12/04 01:13:54;;;;;;;10.70;6.10;;;;;;;-7.65;86.17;97201.55;108748;1265;22477;-79
2023/12/04 01:16:22;;;;;;;11.60;6.30;;;;;;;-7.65;86.49;97204.08;108744;1273;23839;-79
2023/12/04 01:18:51;;;;;;;9.80;5.40;;;;;;;-7.65;86.54;97201.16;108729;1273;22680;-79
2023/12/04 01:21:21;;;;;;;10.50;5.50;;;;;;;-7.67;86.53;97202.05;108754;1267;22519;-79
2023/12/04 01:23:51;;;;;;;10.20;5.80;;;;;;;-7.67;86.42;97207.71;108802;1273;22656;-79
2023/12/04 01:26:20;;;;;;;11.40;5.60;;;;;;;-7.64;86.46;97206.98;108743;1270;24210;-79
2023/12/04 01:28:51;;;;;;;11.10;5.70;;;;;;;-7.55;86.83;97208.31;108775;1273;22564;-79
2023/12/04 01:31:22;;;;;;;11.50;6.30;;;;;;;-7.44;87.21;97206.65;108780;1273;25242;-79
2023/12/04 01:33:50;;;;;;;10.90;5.90;;;;;;;-7.34;87.11;97203.75;108819;1273;22616;-79
2023/12/04 01:36:18;;;;;;;9.60;4.70;;;;;;;-7.25;87.20;97203.77;108754;1273;22483;-80
2023/12/04 01:38:49;;;;;;;8.50;4.70;;;;;;;-7.14;87.28;97202.85;108686;1267;23813;-79
2023/12/04 01:41:20;;;;;;;10.60;5.50;;;;;;;-7.03;87.33;97202.08;108810;1257;22558;-79
2023/12/04 01:43:49;;;;;;;6.90;3.90;;;;;;;-6.93;87.37;97204.82;108777;1273;22520;-79
2023/12/04 01:46:19;;;;;;;8.10;3.00;;;;;;;-6.84;87.12;97205.90;108703;1273;22651;-79
2023/12/04 01:48:52;;;;;;;10.50;5.80;;;;;;;-6.80;87.25;97205.27;108772;1273;23874;-79
2023/12/04 01:51:21;;;;;;;5.30;3.30;;;;;;;-6.76;87.37;97205.56;108784;1273;25431;-79
2023/12/04 01:53:50;;;;;;;8.30;4.20;;;;;;;-6.73;87.20;97206.98;108896;1272;22611;-79
2023/12/04 01:56:20;;;;;;;4.70;3.10;;;;;;;-6.70;87.09;97202.05;108736;1273;23176;-79
2023/12/04 01:58:48;;;;;;;6.50;3.70;;;;;;;-6.67;87.26;97203.42;108759;1266;22543;-79
2023/12/04 02:01:21;;;;;;;8.40;4.40;;;;;;;-6.63;87.22;97202.45;108785;1266;22523;-79
2023/12/04 02:03:50;;;;;;;10.40;5.20;;;;;;;-6.60;87.25;97202.85;108808;1266;24240;-79
2023/12/04 02:06:19;;;;;;;9.90;5.20;;;;;;;-6.56;87.46;97202.85;108754;1273;22533;-79
2023/12/04 02:08:48;;;;;;;8.60;5.00;;;;;;;-6.53;87.54;97199.77;108797;1270;22550;-79
2023/12/04 02:11:17;;;;;;;9.00;5.90;;;;;;;-6.50;87.38;97198.19;108756;1267;22610;-79
2023/12/04 02:13:50;;;;;;;9.40;5.30;;;;;;;-6.47;87.47;97196.73;108782;1273;22588;-79
2023/12/04 02:16:20;;;;;;;10.00;5.40;;;;;;;-6.46;87.32;97195.58;108717;1273;22556;-79
2023/12/04 02:18:50;;;;;;;10.90;5.90;;;;;;;-6.44;87.42;97193.38;108760;1267;24208;-78
2023/12/04 02:21:18;;;;;;;9.90;5.30;;;;;;;-6.43;87.35;97203.45;108756;1273;22569;-78
2023/12/04 02:23:50;;;;;;;9.40;5.40;;;;;;;-6.43;87.46;97201.98;108823;1267;22530;-78
2023/12/04 02:26:24;;;;;;;8.90;5.30;;;;;;;-6.42;87.46;97201.77;108746;1273;22551;-78
2023/12/04 02:29:01;;;;;;;8.50;5.30;;;;;;;-6.44;87.36;97196.05;108795;1273;24382;-78
2023/12/04 02:31:34;;;;;;;8.50;5.40;;;;;;;-6.47;86.97;97192.65;108783;1273;25272;-78
2023/12/04 02:34:06;;;;;;;10.80;6.60;;;;;;;-6.54;86.93;97191.12;108754;1273;23843;-79
2023/12/04 02:36:38;;;;;;;8.80;5.50;;;;;;;-6.61;87.03;97191.97;108774;1273;22516;-78
2023/12/04 02:39:11;;;;;;;9.40;4.80;;;;;;;-6.69;87.00;97186.10;108767;1273;23739;-78
2023/12/04 02:41:41;;;;;;;9.90;5.40;;;;;;;-6.74;86.73;97187.52;108764;1261;25437;-79
2023/12/04 02:44:09;;;;;;;9.40;5.10;;;;;;;-6.79;87.15;97191.70;108732;1273;22594;-79
2023/12/04 02:46:38;;;;;;;8.40;5.10;;;;;;;-6.84;86.96;97189.70;108796;1266;22523;-78
2023/12/04 02:49:09;;;;;;;10.00;5.60;;;;;;;-6.88;86.87;97189.23;108773;1272;22990;-78
2023/12/04 02:51:40;;;;;;;10.00;5.90;;;;;;;-6.94;86.88;97187.93;108778;1273;22518;-78
2023/12/04 02:54:08;;;;;;;8.10;4.90;;;;;;;-6.99;86.92;97190.82;108777;1266;22586;-79
2023/12/04 02:56:36;;;;;;;9.90;5.10;;;;;;;-7.01;87.09;97190.42;108691;1273;22476;-79
2023/12/04 02:59:05;;;;;;;10.10;5.70;;;;;;;-7.05;87.35;97189.42;108739;1273;24900;-78
2023/12/04 03:01:33;;;;;;;12.10;6.30;;;;;;;-7.10;87.17;97186.51;108802;1270;22550;-78
2023/12/04 03:04:04;;;;;;;9.80;6.20;;;;;;;-7.14;87.04;97188.45;108782;1273;25410;-78
2023/12/04 03:06:35;;;;;;;10.50;5.70;;;;;;;-7.20;87.37;97186.23;108772;1273;22627;-78
2023/12/04 03:09:05;;;;;;;10.90;6.20;;;;;;;-7.26;87.31;97186.04;108618;1273;202497;-78
2023/12/04 03:11:33;;;;;;;11.20;5.90;;;;;;;-7.31;87.28;97187.17;108772;1273;22517;-78
2023/12/04 03:14:01;;;;;;;11.60;6.70;;;;;;;-7.35;87.25;97183.33;108771;1266;24212;-78
2023/12/04 03:16:32;;;;;;;10.40;5.80;;;;;;;-7.45;87.11;97179.16;108756;1270;22541;-78
2023/12/04 03:19:00;;;;;;;10.70;6.10;;;;;;;-7.53;87.14;97180.98;108710;1273;22590;-78
2023/12/04 03:21:29;;;;;;;11.50;6.70;;;;;;;-7.60;87.11;97181.67;108802;1266;22518;-78
2023/12/04 03:23:59;;;;;;;8.50;5.40;;;;;;;-7.67;87.00;97185.63;108772;1273;22519;-78
2023/12/04 03:26:30;;;;;;;10.60;6.10;;;;;;;-7.75;86.90;97187.90;108755;1273;22527;-78
2023/12/04 03:28:58;;;;;;;10.80;5.60;;;;;;;-7.79;87.10;97189.47;108740;1270;24930;-78
2023/12/04 03:31:31;;;;;;;11.70;5.60;;;;;;;-7.82;87.16;97194.91;108783;1259;22500;-78
2023/12/04 03:33:59;;;;;;;9.60;5.20;;;;;;;-7.86;87.08;97192.61;108756;1266;22668;-78
2023/12/04 03:36:30;;;;;;;9.30;6.00;;;;;;;-7.85;87.40;97196.10;108703;1269;23293;-78
2023/12/04 03:39:07;;;;;;;6.90;4.10;;;;;;;-7.92;87.04;97190.75;108789;1273;23887;-78
2023/12/04 03:41:35;;;;;;;10.00;5.80;;;;;;;-8.02;86.99;97194.52;108795;1273;22542;-78
2023/12/04 03:44:04;;;;;;;8.20;4.80;;;;;;;-7.92;87.58;97198.34;108782;1273;25453;-79
2023/12/04 03:46:33;;;;;;;9.40;5.60;;;;;;;-7.75;88.22;97202.17;108786;1270;25402;-78
2023/12/04 03:49:02;;;;;;;5.30;3.40;;;;;;;-7.62;88.27;97200.08;108739;1270;22524;-79
2023/12/04 03:51:30;;;;;;;5.40;3.00;;;;;;;-7.52;88.30;97199.55;108701;1273;25425;-79
2023/12/04 03:53:58;;;;;;;6.50;3.70;;;;;;;-7.48;88.24;97197.27;108796;1273;22509;-78
2023/12/04 03:56:27;;;;;;;9.30;4.20;;;;;;;-7.45;88.29;97199.07;108743;1273;22729;-79
2023/12/04 03:58:55;;;;;;;10.20;5.60;;;;;;;-7.42;88.42;97205.83;108698;1266;23790;-79
2023/12/04 04:01:23;;;;;;;8.80;4.50;;;;;;;-7.40;88.41;97209.67;108724;1273;22558;-78
2023/12/04 04:03:52;;;;;;;8.20;5.10;;;;;;;-7.35;88.35;97215.27;108699;1273;22522;-79
2023/12/04 04:06:25;;;;;;;8.70;4.70;;;;;;;-7.32;88.49;97209.46;108699;1266;22517;-79
2023/12/04 04:08:53;;;;;;;9.10;4.60;;;;;;;-7.26;88.60;97209.05;108763;1273;25972;-79
2023/12/04 04:11:22;;;;;;;9.10;4.70;;;;;;;-7.28;88.54;97209.86;108682;1273;22549;-78
2023/12/04 04:13:50;;;;;;;7.70;3.30;;;;;;;-7.30;88.51;97208.73;108741;1273;25416;-78
2023/12/04 04:16:19;;;;;;;7.20;3.20;;;;;;;-7.27;88.54;97210.70;108704;1273;22525;-78
2023/12/04 04:18:49;;;;;;;8.90;5.20;;;;;;;-7.28;88.61;97216.72;108794;1269;24918;-78
2023/12/04 04:21:17;;;;;;;6.40;3.30;;;;;;;-7.28;88.42;97220.91;108795;1270;22549;-78
2023/12/04 04:23:50;;;;;;;7.00;4.20;;;;;;;-7.25;88.70;97221.46;108733;1273;22528;-78
2023/12/04 04:26:20;;;;;;;4.00;2.60;;;;;;;-7.22;88.45;97220.27;108649;1270;23852;-79
2023/12/04 04:28:49;;;;;;;4.50;2.90;;;;;;;-7.19;88.65;97217.88;108672;1273;25237;-79
2023/12/04 04:31:17;;;;;;;8.50;5.10;;;;;;;-7.15;88.80;97219.65;108750;1273;22530;-79
2023/12/04 04:33:45;;;;;;;4.20;2.80;;;;;;;-7.15;88.79;97220.50;108756;1273;24266;-79
2023/12/04 04:36:14;;;;;;;10.10;3.00;;;;;;;-7.14;88.67;97216.09;108695;1266;22476;-79
2023/12/04 04:38:41;;;;;;;;;;;;;;;-7.06;88.72;97219.56;108722;1273;22577;-79
2023/12/04 04:41:15;;;;;;;5.20;2.80;;;;;;;-7.00;88.74;97217.74;108723;1273;22531;-79
2023/12/04 04:43:43;;;;;;;5.70;3.30;;;;;;;-6.93;88.59;97223.60;108733;1273;25209;-79
2023/12/04 04:46:14;;;;;;;5.90;2.80;;;;;;;-6.95;88.46;97219.02;108735;1266;22937;-79
2023/12/04 04:48:43;;;;;;;5.80;3.70;;;;;;;-7.03;88.19;97223.91;108740;1266;25898;-79
2023/12/04 04:51:12;;;;;;;5.10;2.90;;;;;;;-7.12;88.29;97220.41;108706;1273;22569;-79
2023/12/04 04:53:40;;;;;;;7.20;4.30;;;;;;;-7.18;88.10;97222.83;108680;1266;22521;-79
2023/12/04 04:56:11;;;;;;;7.50;4.00;;;;;;;-7.24;88.27;97220.10;108750;1270;24186;-79
2023/12/04 04:58:42;;;;;;;6.80;3.70;;;;;;;-7.32;87.99;97225.11;108712;1273;22580;-79
2023/12/04 05:01:11;;;;;;;6.80;4.20;;;;;;;-7.43;88.02;97227.39;108708;1273;22760;-79
2023/12/04 05:03:41;;;;;;;8.20;4.10;;;;;;;-7.41;88.18;97232.36;108721;1273;22511;-79
2023/12/04 05:06:16;;;;;;;5.10;2.90;;;;;;;-7.43;88.23;97233.73;108674;1273;24222;-79
2023/12/04 05:08:45;;;;;;;7.40;4.20;;;;;;;-7.44;88.04;97234.83;108757;1273;24608;-79
2023/12/04 05:11:18;;;;;;;8.30;4.10;;;;;;;-7.41;88.22;97238.30;108699;1266;22528;-79
2023/12/04 05:13:49;;;;;;;8.20;4.40;;;;;;;-7.38;88.11;97241.45;108781;1273;22540;-79
2023/12/04 05:16:19;;;;;;;6.00;3.50;;;;;;;-7.39;88.31;97243.61;108735;1273;25952;-79
2023/12/04 05:18:49;;;;;;;6.40;4.00;;;;;;;-7.38;88.17;97251.21;108683;1266;22517;-79
2023/12/04 05:21:18;;;;;;;7.00;3.80;;;;;;;-7.36;88.32;97246.08;108798;1265;24127;-79
2023/12/04 05:23:47;;;;;;;10.70;3.40;;;;;;;-7.33;88.36;97248.33;108736;1266;25424;-79
2023/12/04 05:26:16;;;;;;;3.60;2.50;;;;;;;-7.35;88.32;97245.08;108787;1273;22551;-79
2023/12/04 05:28:46;;;;;;;7.80;3.80;;;;;;;-7.33;88.28;97249.86;108760;1266;22517;-79
2023/12/04 05:31:15;;;;;;;3.10;2.60;;;;;;;-7.32;88.45;97248.95;108775;1273;23843;-79
2023/12/04 05:33:43;;;;;;;6.40;4.20;;;;;;;-7.34;88.12;97247.62;108736;1273;22524;-79
2023/12/04 05:36:13;;;;;;;4.90;2.90;;;;;;;-7.41;88.18;97249.14;108737;1266;26052;-79
2023/12/04 05:38:42;;;;;;;9.80;4.80;;;;;;;-7.46;88.33;97244.14;108803;1273;22513;-79
2023/12/04 05:41:11;;;;;;;8.20;4.50;;;;;;;-7.45;88.33;97247.64;108802;1273;22514;-79
2023/12/04 05:43:39;;;;;;;6.60;3.90;;;;;;;-7.43;88.41;97246.71;108730;1273;24215;-79
2023/12/04 05:46:08;;;;;;;7.90;4.50;;;;;;;-7.37;88.54;97248.24;108754;1273;22514;-79
2023/12/04 05:48:37;;;;;;;6.20;3.50;;;;;;;-7.38;88.51;97250.91;108719;1273;22531;-79
2023/12/04 05:51:06;;;;;;;6.20;3.20;;;;;;;-7.50;88.08;97251.52;108769;1273;24340;-80
2023/12/04 05:53:35;;;;;;;8.50;4.80;;;;;;;-7.58;88.00;97255.64;108759;1272;23837;-79
2023/12/04 05:56:08;;;;;;;8.20;4.60;;;;;;;-7.64;88.11;97251.59;108757;1273;22546;-79
2023/12/04 05:58:37;;;;;;;8.70;4.00;;;;;;;-7.67;88.12;97252.23;108755;1273;22539;-79
2023/12/04 06:01:07;;;;;;;10.90;4.70;;;;;;;-7.61;88.46;97252.64;108759;1269;22551;-79
2023/12/04 06:03:36;;;;;;;13.20;7.80;;;;;;;-7.60;88.64;97248.56;108797;1266;26261;-79
2023/12/04 06:06:06;;;;;;;10.80;3.80;;;;;;;-7.53;88.72;97246.20;108797;1273;22528;-79
2023/12/04 06:08:37;;;;;;;6.30;3.30;;;;;;;-7.52;88.71;97248.30;108840;1273;24183;-79
2023/12/04 06:11:12;;;;;;;5.80;3.20;;;;;;;-7.57;88.68;97249.79;108802;1269;23930;-79
2023/12/04 06:13:41;;;;;;;5.60;4.10;;;;;;;-7.63;88.66;97247.54;108740;1273;24208;-79
2023/12/04 06:16:12;;;;;;;8.30;4.00;;;;;;;-7.66;88.44;97254.69;108780;1269;22571;-79
2023/12/04 06:18:40;;;;;;;9.10;4.30;;;;;;;-7.77;88.40;97248.96;108860;1269;22607;-79
2023/12/04 06:21:12;;;;;;;9.90;4.40;;;;;;;-7.75;88.86;97258.95;108749;1273;26609;-79
2023/12/04 06:23:42;;;;;;;6.70;3.20;;;;;;;-7.77;88.59;97264.83;108759;1273;22520;-79
2023/12/04 06:26:14;;;;;;;10.60;4.90;;;;;;;-7.73;88.72;97261.03;108798;1266;23810;-79
2023/12/04 06:28:44;;;;;;;11.80;6.00;;;;;;;-7.85;88.36;97265.08;108798;1269;22576;-79
2023/12/04 06:31:16;;;;;;;10.10;4.60;;;;;;;-7.89;88.42;97264.42;108793;1270;24305;-79
2023/12/04 06:33:55;;;;;;;9.80;3.90;;;;;;;-7.87;88.73;97261.63;108774;1269;25364;-79
2023/12/04 06:36:25;;;;;;;6.90;3.90;;;;;;;-7.90;88.49;97258.65;108746;1266;22843;-79
2023/12/04 06:38:55;;;;;;;12.00;6.50;;;;;;;-7.86;88.80;97263.27;108767;1266;26409;-79
2023/12/04 06:41:25;;;;;;;9.10;5.70;;;;;;;-7.88;88.48;97258.87;108816;1273;23800;-79
2023/12/04 06:43:58;;;;;;;7.20;3.60;;;;;;;-7.86;88.56;97258.30;108824;1266;23793;-79
2023/12/04 06:46:31;;;;;;;8.50;3.90;;;;;;;-7.77;88.62;97253.30;108887;1266;22548;-80
2023/12/04 06:49:04;;;;;;;11.10;4.10;;;;;;;-7.75;88.53;97249.17;108751;1269;22525;-79
2023/12/04 06:51:33;;;;;;;10.10;4.80;;;;;;;-7.62;88.56;97248.84;108753;1272;22591;-79
2023/12/04 06:54:03;;;;;;;4.80;3.20;;;;;;;-7.35;89.26;97247.04;108764;1273;23866;-79
2023/12/04 06:56:32;;;;;;;6.10;4.10;;;;;;;-6.91;89.16;97244.71;108785;1266;22505;-79
2023/12/04 06:59:01;;;;;;;9.20;4.40;;;;;;;-6.51;89.14;97250.44;108735;1267;22570;-79
2023/12/04 07:01:29;;;;;;;4.40;2.90;;;;;;;-6.18;89.02;97254.84;108747;1266;22661;-79
2023/12/04 07:03:58;;;;;;;9.70;6.20;;;;;;;-5.90;88.64;97255.48;108731;1273;22647;-79
2023/12/04 07:06:29;;;;;;;10.90;6.60;;;;;;;-5.57;88.17;97254.13;108720;1273;26453;-79
2023/12/04 07:08:58;;;;;;;7.90;4.70;;;;;;;-5.29;87.64;97253.73;108746;1273;25297;-79
2023/12/04 07:11:29;;;;;;;9.60;6.10;;;;;;;-5.14;87.36;97253.44;108771;1273;24243;-79
2023/12/04 07:14:02;;;;;;;7.40;5.20;;;;;;;-4.99;86.92;97250.53;108782;1273;22527;-79
2023/12/04 07:16:41;;;;;;;9.70;6.30;;;;;;;-4.79;86.43;97246.06;108810;1269;22523;-79
2023/12/04 07:19:10;;;;;;;8.80;6.00;;;;;;;-4.74;85.30;97250.58;108749;1273;22517;-79
2023/12/04 07:21:38;;;;;;;10.50;4.90;;;;;;;-4.71;85.09;97250.70;108764;1273;23975;-79
2023/12/04 07:24:08;;;;;;;8.30;4.80;;;;;;;-4.56;84.70;97252.43;108757;1273;22513;-79
2023/12/04 07:26:38;;;;;;;10.20;6.50;;;;;;;-4.56;84.37;97253.73;108804;1266;22520;-79
2023/12/04 07:29:06;;;;;;;8.60;5.30;;;;;;;-4.21;84.51;97251.12;108747;1272;22514;-79
2023/12/04 07:31:37;;;;;;;7.10;4.60;;;;;;;-4.03;83.98;97247.69;108783;1265;25519;-79
2023/12/04 07:34:05;;;;;;;6.90;4.50;;;;;;;-4.10;83.44;97241.61;108789;1272;24300;-79
2023/12/04 07:36:34;;;;;;;9.30;6.40;;;;;;;-4.07;83.19;97243.34;108786;1273;22538;-79
2023/12/04 07:39:06;;;;;;;8.80;6.40;;;;;;;-3.96;83.58;97246.06;108729;1259;22493;-79
2023/12/04 07:41:34;;;;;;;10.80;5.90;;;;;;;-3.78;83.48;97251.16;108799;1272;22656;-79
2023/12/04 07:44:03;;;;;;;7.40;4.50;;;;;;;-3.89;82.99;97251.52;108752;1273;22777;-79
2023/12/04 07:46:33;;;;;;;8.60;4.80;;;;;;;-4.18;82.28;97248.86;108780;1273;26435;-79
2023/12/04 07:49:02;;;;;;;7.20;4.70;;;;;;;-4.43;82.12;97244.71;108747;1273;23648;-79
2023/12/04 07:51:30;;;;;;;8.80;4.90;;;;;;;-4.43;82.31;97239.17;108797;1267;22530;-79
2023/12/04 07:53:58;;;;;;;10.90;6.60;;;;;;;-4.27;82.40;97247.65;108779;1266;22682;-79
2023/12/04 07:56:30;;;;;;;9.90;5.70;;;;;;;-4.08;82.17;97249.58;108765;1273;23824;-79
2023/12/04 07:58:58;;;;;;;10.00;5.80;;;;;;;-3.97;82.23;97250.86;108740;1273;22514;-79
2023/12/04 08:01:27;;;;;;;7.30;4.80;;;;;;;-4.02;81.34;97248.13;108774;1250;22563;-79
2023/12/04 08:03:56;;;;;;;9.40;6.00;;;;;;;-4.30;80.66;97247.83;108777;1273;25259;-79
2023/12/04 08:06:24;;;;;;;9.60;6.20;;;;;;;-4.38;80.85;97245.04;108738;1273;24209;-79
2023/12/04 08:08:53;;;;;;;10.40;6.70;;;;;;;-4.33;81.24;97251.16;108757;1269;25416;-79
2023/12/04 08:11:21;;;;;;;9.10;5.30;;;;;;;-4.26;80.82;97259.61;108748;1270;26168;-79
2023/12/04 08:13:49;;;;;;;8.20;4.70;;;;;;;-4.43;80.08;97260.27;108767;1273;25554;-80
2023/12/04 08:16:19;;;;;;;8.20;4.20;;;;;;;-4.52;79.61;97258.30;108744;1273;22480;-79
2023/12/04 08:18:51;;;;;;;8.10;5.10;;;;;;;-4.55;79.09;97255.86;108791;1272;22633;-79
2023/12/04 08:21:19;;;;;;;10.30;6.10;;;;;;;-4.63;79.15;97266.27;108751;1273;25519;-79
2023/12/04 08:23:51;;;;;;;7.10;4.00;;;;;;;-4.52;79.73;97264.66;108721;1273;22556;-79
2023/12/04 08:26:26;;;;;;;11.90;5.90;;;;;;;-4.57;79.16;97273.67;108766;1251;22609;-79
2023/12/04 08:28:57;;;;;;;6.80;4.60;;;;;;;-4.55;79.61;97276.41;108763;1273;22561;-79
2023/12/04 08:31:26;;;;;;;11.40;6.60;;;;;;;-4.51;79.61;97270.39;108780;1273;24028;-79
2023/12/04 08:33:54;;;;;;;10.30;5.20;;;;;;;-4.41;79.91;97269.87;108739;1273;26546;-79
2023/12/04 08:36:22;;;;;;;9.80;6.30;;;;;;;-4.27;79.98;97267.80;108752;1266;24112;-79
2023/12/04 08:38:51;;;;;;;11.30;6.60;;;;;;;-4.24;79.81;97261.73;108754;1273;22531;-79
2023/12/04 08:41:19;;;;;;;11.20;6.40;;;;;;;-4.26;79.60;97268.93;108801;1273;25281;-79
2023/12/04 08:43:48;;;;;;;11.10;7.90;;;;;;;-4.23;79.76;97263.91;108773;1273;25195;-79
2023/12/04 08:46:23;;;;;;;11.90;7.40;;;;;;;-4.18;79.80;97266.48;108815;1266;25300;-79
2023/12/04 08:48:53;;;;;;;9.20;6.30;;;;;;;-4.22;79.28;97271.64;108750;1273;22516;-79
2023/12/04 08:51:22;;;;;;;11.40;5.90;;;;;;;-4.28;79.45;97270.20;108823;1267;22538;-79
2023/12/04 08:53:50;;;;;;;;;;;;;;;-4.30;79.53;97265.67;108763;1272;24315;-79
2023/12/04 08:56:19;;;;;;;12.50;6.60;;;;;;;-4.20;79.80;97263.58;108773;1269;22555;-79
2023/12/04 08:58:50;;;;;;;;;;;;;;;-4.18;79.56;97265.05;108772;1273;22685;-79
2023/12/04 09:01:18;;;;;;;12.70;6.70;;;;;;;-4.05;79.92;97264.05;108782;1272;22514;-79
2023/12/04 09:03:49;;;;;;;13.40;7.10;;;;;;;-3.89;79.89;97267.00;108780;1270;22839;-79
2023/12/04 09:06:17;;;;;;;10.90;5.90;;;;;;;-3.92;79.36;97272.07;108717;1266;22517;-78
2023/12/04 09:08:48;;;;;;;8.30;4.00;;;;;;;-4.03;79.04;97265.30;108799;1273;22517;-79
2023/12/04 09:11:19;;;;;;;9.90;6.30;;;;;;;-4.14;78.43;97256.39;108749;1273;22566;-79
2023/12/04 09:13:47;;;;;;;6.90;3.90;;;;;;;-4.08;78.96;97255.02;108774;1273;22631;-78
2023/12/04 09:16:18;;;;;;;12.90;7.40;;;;;;;-3.98;78.85;97256.42;108771;1273;23161;-78
2023/12/04 09:18:48;;;;;;;11.50;7.30;;;;;;;-3.92;78.75;97257.50;108796;1249;22528;-79
2023/12/04 09:21:17;;;;;;;12.50;7.40;;;;;;;-3.94;78.31;97257.19;108788;1250;22571;-79
2023/12/04 09:23:49;;;;;;;10.00;5.10;;;;;;;-3.84;78.88;97253.86;108734;1269;22567;-79
2023/12/04 09:26:20;;;;;;;7.50;4.80;;;;;;;-3.77;78.74;97253.11;108780;1267;22782;-79
2023/12/04 09:28:49;;;;;;;12.10;5.90;;;;;;;-3.72;78.33;97253.42;108794;1273;22517;-79
2023/12/04 09:31:21;;;;;;;11.40;7.20;;;;;;;-3.79;78.20;97251.91;108800;1273;25397;-79
2023/12/04 09:33:50;;;;;;;12.70;8.10;;;;;;;-3.66;78.37;97244.41;108758;1273;22539;-79
2023/12/04 09:36:18;;;;;;;;;;;;;;;-3.60;78.37;97239.90;108786;1273;22518;-79
2023/12/04 09:38:55;;;;;;;11.80;7.00;;;;;;;-3.56;78.38;97236.75;108750;1266;22688;-79
2023/12/04 09:41:24;;;;;;;10.90;4.20;;;;;;;-3.50;78.46;97241.13;108763;1273;22526;-78
2023/12/04 09:43:53;;;;;;;6.40;3.60;;;;;;;-3.46;78.12;97237.66;108766;1267;22577;-80
2023/12/04 09:46:22;;;;;;;10.00;5.30;;;;;;;-3.38;78.28;97233.34;108750;1268;26586;-79
2023/12/04 09:48:54;;;;;;;12.60;5.50;;;;;;;-3.41;77.53;97231.55;108767;1270;22571;-79
2023/12/04 09:51:27;;;;;;;12.30;6.00;;;;;;;-3.58;76.80;97229.13;108786;1272;23634;-79
2023/12/04 09:53:57;;;;;;;12.90;7.20;;;;;;;-3.61;76.55;97221.61;108733;1273;22524;-78
2023/12/04 09:56:27;;;;;;;11.20;7.10;;;;;;;-3.64;76.08;97212.80;108775;1266;26969;-79
2023/12/04 09:59:00;;;;;;;10.80;4.80;;;;;;;-3.55;76.84;97214.86;108737;1273;23022;-79
2023/12/04 10:01:30;;;;;;;9.00;6.30;;;;;;;-3.33;77.22;97206.80;108794;1273;24213;-79
2023/12/04 10:04:04;;;;;;;11.70;7.30;;;;;;;-3.14;77.12;97199.09;108774;1273;24223;-79
2023/12/04 10:06:34;;;;;;;10.60;6.80;;;;;;;-3.05;77.14;97189.38;108775;1272;23749;-79
2023/12/04 10:09:11;;;;;;;12.80;5.70;;;;;;;-2.74;77.37;97193.48;108773;1269;24208;-79
2023/12/04 10:11:42;;;;;;;11.80;7.00;;;;;;;-2.65;76.84;97188.82;108794;1269;22551;-79
2023/12/04 10:14:17;;;;;;;14.10;8.20;;;;;;;-2.57;76.90;97185.75;108750;1272;23855;-79
2023/12/04 10:16:46;;;;;;;12.40;7.80;;;;;;;-2.44;76.75;97182.38;108779;1273;22517;-79
2023/12/04 10:19:23;;;;;;;13.30;7.70;;;;;;;-2.40;76.84;97181.03;108762;1273;22578;-79
2023/12/04 10:21:52;;;;;;;12.10;7.20;;;;;;;-2.27;76.64;97173.40;108755;1273;22521;-79
2023/12/04 10:24:38;;;;;;;12.60;7.20;;;;;;;-2.14;76.69;97171.10;108771;1273;22506;-79
2023/12/04 10:27:11;;;;;;;12.00;7.20;;;;;;;-2.01;76.81;97167.46;108808;1273;22525;-79
2023/12/04 10:29:47;;;;;;;11.60;7.10;;;;;;;-1.92;76.69;97164.33;108805;1270;23024;-79
2023/12/04 10:32:21;;;;;;;12.40;8.20;;;;;;;-1.78;76.75;97168.20;108766;1273;22559;-79
2023/12/04 10:34:50;;;;;;;13.20;8.20;;;;;;;-1.69;76.40;97163.77;108780;1273;22629;-79
2023/12/04 10:37:22;;;;;;;14.70;8.50;;;;;;;-1.64;76.32;97165.98;108767;1273;25297;-79
2023/12/04 10:39:53;;;;;;;12.30;7.60;;;;;;;-1.52;76.56;97160.98;108712;1269;22737;-79
2023/12/04 10:42:26;;;;;;;11.00;7.10;;;;;;;-1.43;76.03;97157.22;108816;1273;22507;-79
2023/12/04 10:45:00;;;;;;;13.00;7.90;;;;;;;-1.58;75.68;97159.38;108722;1266;22510;-79
2023/12/04 10:47:31;;;;;;;11.80;7.60;;;;;;;-1.57;75.55;97155.89;108720;1273;22556;-79
2023/12/04 10:50:02;;;;;;;11.30;7.40;;;;;;;-1.54;75.22;97159.21;108770;1266;22528;-79
2023/12/04 10:52:32;;;;;;;10.90;7.50;;;;;;;-1.64;75.21;97158.70;108719;1273;24282;-79
2023/12/04 10:55:03;;;;;;;11.70;7.60;;;;;;;-1.62;75.34;97154.20;108736;1266;22555;-79
2023/12/04 10:57:38;;;;;;;11.60;7.00;;;;;;;-1.55;75.16;97153.24;108705;1269;22524;-79
2023/12/04 11:00:10;;;;;;;11.90;6.50;;;;;;;-1.47;75.34;97153.90;108784;1273;22545;-80
2023/12/04 11:02:46;;;;;;;11.90;6.70;;;;;;;-1.48;74.69;97153.38;108736;1269;22831;-79
2023/12/04 11:05:17;;;;;;;10.90;7.20;;;;;;;-1.35;74.75;97148.91;108729;1273;22514;-79
2023/12/04 11:07:52;;;;;;;11.10;6.40;;;;;;;-1.24;75.02;97144.00;108830;1270;22513;-79
2023/12/04 11:10:24;;;;;;;12.80;7.90;;;;;;;-1.36;74.12;97145.42;108778;1273;25416;-79
2023/12/04 11:13:03;;;;;;;11.20;6.10;;;;;;;-1.39;74.07;97142.73;108822;1273;25297;-79
2023/12/04 11:15:39;;;;;;;12.30;8.10;;;;;;;-1.42;73.94;97138.10;108795;1273;23763;-79
2023/12/04 11:18:10;;;;;;;12.30;7.80;;;;;;;-1.35;74.39;97140.02;108793;1272;25450;-79
2023/12/04 11:20:47;;;;;;;13.50;8.20;;;;;;;-1.19;74.10;97134.34;108805;1273;22523;-79
2023/12/04 11:23:17;;;;;;;13.40;8.10;;;;;;;-1.13;74.16;97133.48;108780;1267;25379;-79
2023/12/04 11:25:53;;;;;;;11.60;7.30;;;;;;;-1.00;74.27;97127.52;108760;1271;22527;-79
2023/12/04 11:28:28;;;;;;;12.60;6.80;;;;;;;-0.95;74.04;97124.71;108760;1269;25043;-79
2023/12/04 11:30:57;;;;;;;12.70;6.70;;;;;;;-1.12;73.28;97122.36;108827;1273;22525;-80
2023/12/04 11:33:34;;;;;;;12.80;7.70;;;;;;;-1.19;73.09;97118.73;108754;1273;22841;-79
2023/12/04 11:36:12;;;;;;;11.60;7.60;;;;;;;-1.31;73.06;97113.41;108782;1273;25208;-79